Time;durP1;ratioP1;P1;durP2;ratioP2;P2;SDS_P1;SDS_P2;PMS_P1;PMS_P2;Temp;Humidity;BMP_temperature;BMP_pressure;BME280_temperature;BME280_humidity;BME280_pressure;Samples;Min_cycle;Max_cycle;Signal;HPM_P1;HPM_P2
2023/01/18 00:01:06;;;;;;;7.43;1.80;;;28.30;58.40;;;;;;5053232;28;20224;-71
2023/01/18 00:03:35;;;;;;;7.97;1.90;;;28.20;58.70;;;;;;5052627;28;20245;-71
2023/01/18 00:06:03;;;;;;;8.47;2.10;;;28.70;57.50;;;;;;5050924;28;20263;-71
2023/01/18 00:08:32;;;;;;;9.13;1.97;;;28.50;58.00;;;;;;5052722;28;20242;-72
2023/01/18 00:11:17;;;;;;;10.00;1.60;;;28.70;57.40;;;;;;5052214;28;20176;-69
2023/01/18 00:13:45;;;;;;;9.37;1.83;;;28.80;57.50;;;;;;5054245;28;20262;-73
2023/01/18 00:16:15;;;;;;;9.03;2.03;;;28.60;57.50;;;;;;5058455;28;20185;-70
2023/01/18 00:18:43;;;;;;;8.50;1.60;;;28.70;57.40;;;;;;5053826;28;20179;-70
2023/01/18 00:21:12;;;;;;;6.77;1.67;;;28.90;56.40;;;;;;5048110;28;20261;-70
2023/01/18 00:23:39;;;;;;;7.33;1.70;;;29.00;56.70;;;;;;5052187;28;20203;-70
2023/01/18 00:26:09;;;;;;;7.40;1.30;;;29.10;56.20;;;;;;5053446;28;20185;-70
2023/01/18 00:28:37;;;;;;;5.87;1.60;;;29.30;55.70;;;;;;5053229;28;20183;-70
2023/01/18 00:31:19;;;;;;;6.43;2.20;;;29.30;55.90;;;;;;5052743;28;20180;-70
2023/01/18 00:33:48;;;;;;;6.40;1.73;;;29.10;55.30;;;;;;5046509;28;20175;-72
2023/01/18 00:36:17;;;;;;;5.37;1.60;;;29.30;55.90;;;;;;5047871;28;20245;-73
2023/01/18 00:38:52;;;;;;;5.03;1.37;;;29.70;55.10;;;;;;5051850;28;20286;-72
2023/01/18 00:41:21;;;;;;;5.40;1.60;;;29.90;53.90;;;;;;5050575;28;20188;-71
2023/01/18 00:43:48;;;;;;;10.77;1.87;;;30.00;54.20;;;;;;5053668;28;20169;-69
2023/01/18 00:46:21;;;;;;;12.50;3.23;;;30.10;54.20;;;;;;5052031;28;20176;-70
2023/01/18 00:48:50;;;;;;;6.97;2.87;;;30.30;54.60;;;;;;5053142;28;20199;-71
2023/01/18 00:51:21;;;;;;;10.43;4.57;;;30.10;53.90;;;;;;5047294;28;20223;-71
2023/01/18 00:53:49;;;;;;;9.37;2.00;;;29.60;54.60;;;;;;5049438;28;20180;-70
2023/01/18 00:56:18;;;;;;;8.63;2.63;;;29.10;56.40;;;;;;5053005;28;20179;-69
2023/01/18 00:58:46;;;;;;;5.57;2.17;;;29.10;57.40;;;;;;5052005;28;20172;-71
2023/01/18 01:01:14;;;;;;;7.87;2.03;;;29.00;57.40;;;;;;5051166;28;20190;-71
2023/01/18 01:06:44;;;;;;;6.37;1.90;;;28.70;58.70;;;;;;5051178;28;20202;-70
2023/01/18 01:09:24;;;;;;;9.90;1.70;;;28.80;58.30;;;;;;5045773;28;20908;-71
2023/01/18 01:26:07;;;;;;;5.37;2.07;;;28.80;58.80;;;;;;5050769;28;20244;-71
2023/01/18 01:28:39;;;;;;;9.03;2.07;;;29.20;58.20;;;;;;5049829;28;20555;-74
2023/01/18 01:31:09;;;;;;;11.00;3.93;;;29.10;57.70;;;;;;5051509;28;20192;-72
2023/01/18 01:33:37;;;;;;;13.03;2.73;;;29.30;57.80;;;;;;5046075;28;20199;-71
2023/01/18 01:36:16;;;;;;;9.83;2.60;;;29.70;57.10;;;;;;5051014;28;20198;-69
2023/01/18 01:38:43;;;;;;;11.07;2.23;;;30.20;55.30;;;;;;5051662;28;20186;-72
2023/01/18 01:41:25;;;;;;;6.93;2.03;;;30.20;55.20;;;;;;5050804;28;20955;-70
2023/01/18 01:43:55;;;;;;;7.33;2.03;;;30.20;55.30;;;;;;5054741;28;20634;-71
2023/01/18 01:46:34;;;;;;;8.67;2.17;;;30.30;54.90;;;;;;5046364;28;20317;-70
2023/01/18 01:49:25;;;;;;;6.97;2.37;;;30.40;54.60;;;;;;5050925;28;20191;-71
2023/01/18 01:52:06;;;;;;;6.47;1.97;;;30.00;55.70;;;;;;5047320;28;20227;-71
2023/01/18 01:54:49;;;;;;;10.03;2.60;;;30.10;55.60;;;;;;5058257;28;20285;-72
2023/01/18 01:57:24;;;;;;;7.00;2.37;;;30.30;55.10;;;;;;5050110;28;20191;-70
2023/01/18 02:00:14;;;;;;;10.53;2.10;;;30.70;54.20;;;;;;5053500;28;20215;-70
2023/01/18 02:02:44;;;;;;;6.90;1.87;;;30.30;54.90;;;;;;5055418;28;20661;-70
2023/01/18 02:05:15;;;;;;;8.50;2.13;;;29.90;55.70;;;;;;5055223;28;20195;-70
2023/01/18 02:07:42;;;;;;;9.07;2.13;;;30.30;54.50;;;;;;5057561;28;20254;-70
2023/01/18 02:10:10;;;;;;;9.67;2.40;;;30.40;54.70;;;;;;5055576;28;20198;-71
2023/01/18 02:12:40;;;;;;;6.77;1.97;;;30.30;54.40;;;;;;5047662;28;20184;-71
2023/01/18 02:15:08;;;;;;;6.93;1.97;;;30.50;55.00;;;;;;5056625;28;20192;-69
2023/01/18 02:17:47;;;;;;;7.77;2.23;;;30.60;53.90;;;;;;5054878;28;20221;-71
2023/01/18 02:20:33;;;;;;;5.57;1.67;;;30.80;53.50;;;;;;5056555;28;20682;-70
2023/01/18 02:23:24;;;;;;;7.17;2.00;;;30.70;53.40;;;;;;5053796;28;20230;-70
2023/01/18 02:26:30;;;;;;;8.43;1.87;;;31.10;52.90;;;;;;5055536;28;20176;-69
2023/01/18 02:29:17;;;;;;;7.80;1.80;;;30.80;52.80;;;;;;5052328;28;20192;-71
2023/01/18 02:32:04;;;;;;;5.67;1.67;;;30.80;52.90;;;;;;5051371;28;20191;-71
2023/01/18 02:34:49;;;;;;;5.23;1.47;;;30.80;52.70;;;;;;5060870;28;20619;-71
2023/01/18 02:37:39;;;;;;;9.10;2.03;;;30.80;52.90;;;;;;5051850;28;20183;-71
2023/01/18 02:40:23;;;;;;;9.63;1.70;;;30.70;53.00;;;;;;5066743;28;20406;-70
2023/01/18 02:48:40;;;;;;;7.20;1.80;;;31.10;51.50;;;;;;5055554;28;20726;-70
2023/01/18 02:51:08;;;;;;;6.83;1.87;;;31.20;52.10;;;;;;5057476;28;20301;-71
2023/01/18 02:53:41;;;;;;;6.33;1.60;;;31.00;51.70;;;;;;5053769;28;20230;-70
2023/01/18 02:56:40;;;;;;;7.67;1.50;;;30.90;51.60;;;;;;5057052;28;20242;-71
2023/01/18 02:59:16;;;;;;;5.23;1.77;;;31.00;51.30;;;;;;5051165;28;20302;-73
2023/01/18 03:01:49;;;;;;;7.67;1.83;;;31.40;50.70;;;;;;5056435;28;20183;-69
2023/01/18 03:04:21;;;;;;;7.10;1.60;;;31.40;50.70;;;;;;5052502;28;20179;-69
2023/01/18 03:06:56;;;;;;;11.52;2.22;;;31.30;51.10;;;;;;5063143;28;20182;-69
2023/01/18 03:09:25;;;;;;;6.70;1.67;;;31.30;51.50;;;;;;5054197;28;20652;-70
2023/01/18 03:12:16;;;;;;;4.95;1.40;;;31.30;50.80;;;;;;5057073;28;20172;-71
2023/01/18 03:15:03;;;;;;;6.93;1.77;;;31.40;50.40;;;;;;5042755;28;20191;-73
2023/01/18 03:17:41;;;;;;;6.57;1.95;;;31.30;51.30;;;;;;5045251;28;20223;-70
2023/01/18 03:20:15;;;;;;;9.45;2.08;;;31.50;51.10;;;;;;5058768;28;20211;-69
2023/01/18 03:23:37;;;;;;;6.38;1.98;;;31.90;50.40;;;;;;5056368;28;20179;-71
2023/01/18 03:26:17;;;;;;;9.48;2.08;;;32.10;50.00;;;;;;5013746;28;20672;-69
2023/01/18 03:34:41;;;;;;;10.38;1.95;;;31.20;51.90;;;;;;5051300;28;20241;-70
2023/01/18 03:37:14;;;;;;;7.78;1.90;;;31.40;51.10;;;;;;5040849;28;20184;-71
2023/01/18 03:39:50;;;;;;;8.00;1.73;;;31.10;51.70;;;;;;5052982;28;20223;-69
2023/01/18 03:42:47;;;;;;;8.10;2.00;;;30.70;52.90;;;;;;5053065;28;20241;-70
2023/01/18 03:45:36;;;;;;;5.97;1.70;;;30.60;53.10;;;;;;5049716;28;20187;-71
2023/01/18 03:48:06;;;;;;;6.30;1.87;;;30.60;53.60;;;;;;5045680;28;20191;-69
2023/01/18 03:50:59;;;;;;;5.63;1.73;;;30.70;53.40;;;;;;4949561;28;2831883;-70
2023/01/18 03:53:31;;;;;;;10.65;1.77;;;30.60;53.50;;;;;;5045220;28;20180;-69
2023/01/18 03:56:05;;;;;;;9.07;1.90;;;30.40;54.30;;;;;;5056509;28;20241;-69
2023/01/18 03:58:35;;;;;;;9.07;2.03;;;30.60;54.40;;;;;;5052978;28;20188;-70
2023/01/18 04:01:04;;;;;;;7.63;1.90;;;30.30;54.60;;;;;;5053805;28;20214;-71
2023/01/18 04:03:33;;;;;;;8.00;1.80;;;30.00;54.40;;;;;;5051556;28;20539;-70
2023/01/18 04:06:04;;;;;;;8.87;2.40;;;30.10;54.80;;;;;;5053430;28;20180;-71
2023/01/18 04:08:31;;;;;;;10.47;1.80;;;30.10;54.70;;;;;;5053959;28;20179;-70
2023/01/18 04:10:59;;;;;;;6.97;2.20;;;30.30;54.80;;;;;;5053562;28;20184;-71
2023/01/18 04:13:26;;;;;;;9.07;2.17;;;30.50;54.30;;;;;;5048020;28;20180;-71
2023/01/18 04:15:53;;;;;;;11.77;2.00;;;30.80;52.90;;;;;;5048074;28;20593;-71
2023/01/18 04:18:21;;;;;;;7.10;2.10;;;31.50;51.60;;;;;;5052066;28;20638;-71
2023/01/18 04:20:48;;;;;;;7.38;1.98;;;31.50;51.20;;;;;;5046452;28;20231;-73
2023/01/18 04:23:15;;;;;;;13.35;2.05;;;31.30;51.70;;;;;;5050671;28;20936;-74
2023/01/18 04:25:44;;;;;;;10.40;2.15;;;30.80;52.90;;;;;;5053649;28;20192;-70
2023/01/18 04:28:11;;;;;;;10.07;2.27;;;30.30;54.40;;;;;;5055794;28;20192;-70
2023/01/18 04:30:39;;;;;;;7.00;1.83;;;30.20;54.00;;;;;;5059427;28;20187;-72
2023/01/18 04:33:06;;;;;;;10.85;2.30;;;30.00;55.00;;;;;;5052048;28;20179;-71
2023/01/18 04:35:35;;;;;;;11.70;2.55;;;30.30;54.50;;;;;;5052672;28;20187;-71
2023/01/18 04:38:02;;;;;;;8.45;2.35;;;30.00;55.40;;;;;;5052460;28;20187;-72
2023/01/18 04:40:29;;;;;;;7.75;1.98;;;30.30;54.60;;;;;;5049971;28;20288;-70
2023/01/18 04:42:57;;;;;;;7.10;2.08;;;30.70;52.60;;;;;;5053343;28;20544;-70
2023/01/18 04:45:24;;;;;;;11.80;2.45;;;30.60;53.30;;;;;;5051400;28;20279;-68
2023/01/18 04:47:51;;;;;;;11.93;2.50;;;30.60;53.80;;;;;;5051001;28;20219;-70
2023/01/18 04:50:19;;;;;;;13.98;2.35;;;30.50;54.30;;;;;;5050644;28;20330;-72
2023/01/18 04:52:46;;;;;;;10.18;2.05;;;30.20;54.70;;;;;;5056818;28;20193;-70
2023/01/18 04:55:14;;;;;;;12.93;2.20;;;30.80;53.30;;;;;;5052352;28;20187;-69
2023/01/18 04:57:42;;;;;;;11.23;2.13;;;31.10;52.00;;;;;;5056615;28;20184;-71
2023/01/18 05:00:12;;;;;;;13.38;2.50;;;31.50;51.40;;;;;;5056285;28;20219;-72
2023/01/18 05:02:39;;;;;;;12.60;2.67;;;31.40;51.60;;;;;;5051870;28;20176;-74
2023/01/18 05:05:07;;;;;;;10.35;2.10;;;30.60;53.00;;;;;;5050741;28;20192;-69
2023/01/18 05:07:34;;;;;;;12.93;2.63;;;30.80;53.00;;;;;;5052321;28;20283;-73
2023/01/18 05:10:03;;;;;;;9.02;2.20;;;31.00;52.80;;;;;;5051999;28;20223;-71
2023/01/18 05:12:30;;;;;;;8.93;2.43;;;30.20;55.20;;;;;;5052865;28;20706;-70
2023/01/18 05:14:57;;;;;;;12.37;3.00;;;30.00;55.90;;;;;;5053530;28;20190;-71
2023/01/18 05:17:29;;;;;;;11.67;2.20;;;29.70;57.10;;;;;;5051084;28;20654;-71
2023/01/18 05:19:57;;;;;;;14.80;2.67;;;29.20;58.00;;;;;;5047981;28;20211;-70
2023/01/18 05:22:24;;;;;;;13.87;2.77;;;28.60;60.00;;;;;;5053095;28;20263;-71
2023/01/18 05:24:52;;;;;;;12.73;3.00;;;28.30;61.10;;;;;;5050911;28;20649;-70
2023/01/18 05:27:20;;;;;;;12.87;3.20;;;28.30;61.90;;;;;;5049766;28;20634;-67
2023/01/18 05:29:50;;;;;;;17.33;3.03;;;28.30;62.40;;;;;;5053641;28;20180;-70
2023/01/18 05:32:18;;;;;;;12.20;2.57;;;28.20;62.60;;;;;;5054092;28;20712;-73
2023/01/18 05:34:45;;;;;;;19.47;3.40;;;28.20;62.70;;;;;;5056820;28;20218;-72
2023/01/18 05:37:12;;;;;;;16.43;2.90;;;27.90;63.30;;;;;;5052318;28;20214;-69
2023/01/18 05:39:40;;;;;;;14.57;3.33;;;27.90;63.90;;;;;;5053551;28;20230;-71
2023/01/18 05:42:07;;;;;;;13.37;2.77;;;28.00;63.70;;;;;;5058147;28;20190;-70
2023/01/18 05:44:35;;;;;;;18.87;3.23;;;27.90;63.40;;;;;;5053942;28;20190;-70
2023/01/18 05:47:02;;;;;;;15.20;2.93;;;27.70;64.40;;;;;;5052750;28;20218;-69
2023/01/18 05:49:29;;;;;;;15.97;3.63;;;27.80;64.60;;;;;;5060289;28;20274;-71
2023/01/18 05:51:57;;;;;;;11.47;2.90;;;27.80;64.50;;;;;;5052611;28;20303;-69
2023/01/18 05:54:24;;;;;;;16.33;3.67;;;27.60;65.10;;;;;;5050533;28;20242;-70
2023/01/18 05:56:51;;;;;;;12.10;3.43;;;27.60;64.70;;;;;;5050154;28;20184;-70
2023/01/18 05:59:19;;;;;;;14.57;3.90;;;27.60;65.00;;;;;;5050153;28;20684;-70
2023/01/18 06:01:46;;;;;;;13.07;3.07;;;27.60;65.20;;;;;;5045910;28;20192;-70
2023/01/18 06:04:13;;;;;;;18.47;3.47;;;27.40;66.10;;;;;;5050277;28;20270;-69
2023/01/18 06:06:41;;;;;;;22.77;3.47;;;27.30;66.20;;;;;;5046213;28;20188;-69
2023/01/18 06:09:09;;;;;;;20.87;4.00;;;27.20;67.10;;;;;;5071082;28;20190;-69
2023/01/18 06:11:37;;;;;;;24.83;3.27;;;27.20;67.30;;;;;;5072253;28;20186;-69
2023/01/18 06:14:04;;;;;;;18.73;3.63;;;27.00;67.40;;;;;;5059286;28;20186;-70
2023/01/18 06:16:31;;;;;;;16.00;2.97;;;26.80;67.90;;;;;;5063199;28;20196;-70
2023/01/18 06:18:59;;;;;;;9.83;3.37;;;26.80;68.30;;;;;;5057347;28;20179;-69
2023/01/18 06:21:26;;;;;;;12.30;3.67;;;26.80;68.30;;;;;;5053998;28;20188;-69
2023/01/18 06:23:53;;;;;;;17.60;3.50;;;26.70;68.80;;;;;;5055213;28;20685;-70
2023/01/18 06:26:22;;;;;;;15.83;3.13;;;26.70;69.00;;;;;;5068341;28;20198;-69
2023/01/18 06:28:49;;;;;;;14.37;3.07;;;26.60;69.10;;;;;;5053957;28;20271;-69
2023/01/18 06:31:17;;;;;;;17.13;3.73;;;26.50;69.50;;;;;;5047055;28;20329;-69
2023/01/18 06:33:44;;;;;;;19.33;4.00;;;26.50;69.60;;;;;;5051221;28;20274;-69
2023/01/18 06:36:12;;;;;;;15.10;3.47;;;26.40;69.70;;;;;;5052663;28;20198;-68
2023/01/18 06:38:40;;;;;;;17.13;3.93;;;26.40;69.70;;;;;;5052870;28;20208;-68
2023/01/18 06:41:08;;;;;;;18.33;3.93;;;26.40;70.00;;;;;;5052389;28;20234;-69
2023/01/18 06:43:35;;;;;;;12.93;3.43;;;26.40;70.60;;;;;;5057556;28;20719;-70
2023/01/18 06:46:06;;;;;;;16.93;3.90;;;26.30;70.60;;;;;;5068682;28;20195;-67
2023/01/18 06:48:33;;;;;;;13.10;3.23;;;26.30;70.70;;;;;;5067232;28;20270;-70
2023/01/18 06:51:01;;;;;;;18.47;3.43;;;26.20;70.90;;;;;;5049469;28;20782;-69
2023/01/18 06:53:29;;;;;;;20.63;3.90;;;26.20;71.00;;;;;;5063567;28;20183;-71
2023/01/18 06:56:03;;;;;;;20.73;4.30;;;26.30;71.00;;;;;;5069076;28;20198;-71
2023/01/18 06:58:32;;;;;;;16.23;3.07;;;26.20;70.80;;;;;;5063184;28;20170;-70
2023/01/18 07:01:00;;;;;;;15.50;2.97;;;26.20;71.20;;;;;;5066996;28;20211;-69
2023/01/18 07:03:29;;;;;;;14.97;3.43;;;26.20;71.10;;;;;;5054112;28;20179;-69
2023/01/18 07:05:58;;;;;;;18.07;3.60;;;26.20;71.20;;;;;;5067960;28;20199;-72
2023/01/18 07:08:27;;;;;;;19.60;3.67;;;26.10;70.90;;;;;;5075223;28;20537;-70
2023/01/18 07:10:54;;;;;;;17.70;3.23;;;26.10;70.80;;;;;;5061084;28;20186;-70
2023/01/18 07:13:23;;;;;;;17.43;4.03;;;26.10;71.30;;;;;;5068330;28;20184;-71
2023/01/18 07:15:57;;;;;;;16.00;4.07;;;26.10;71.30;;;;;;5057474;28;20266;-74
2023/01/18 07:18:25;;;;;;;15.90;3.87;;;26.00;71.40;;;;;;5054771;28;20531;-73
2023/01/18 07:21:06;;;;;;;14.03;3.10;;;25.90;71.60;;;;;;5053350;28;20302;-71
2023/01/18 07:23:36;;;;;;;19.03;3.77;;;26.00;72.00;;;;;;5053670;28;20168;-69
2023/01/18 07:26:05;;;;;;;21.33;4.10;;;25.90;72.30;;;;;;5054764;28;20270;-72
2023/01/18 07:28:34;;;;;;;19.40;4.17;;;25.80;72.10;;;;;;5054379;28;20569;-70
2023/01/18 07:31:04;;;;;;;14.87;3.23;;;25.80;72.40;;;;;;5054522;28;20197;-69
2023/01/18 07:33:33;;;;;;;15.70;3.57;;;25.80;72.70;;;;;;5053171;28;20231;-71
2023/01/18 07:36:03;;;;;;;17.33;3.43;;;25.80;72.70;;;;;;5052782;28;20189;-70
2023/01/18 07:38:31;;;;;;;20.17;3.90;;;25.80;73.00;;;;;;5052918;28;20267;-74
2023/01/18 07:41:04;;;;;;;15.63;3.37;;;25.80;73.30;;;;;;5045207;28;20208;-73
2023/01/18 07:43:32;;;;;;;17.40;3.70;;;25.80;72.70;;;;;;5051089;28;20219;-72
2023/01/18 07:46:02;;;;;;;19.77;4.17;;;25.80;73.00;;;;;;5047820;28;20185;-72
2023/01/18 07:48:30;;;;;;;15.07;3.43;;;25.70;73.30;;;;;;5054020;28;20222;-74
2023/01/18 07:51:03;;;;;;;18.33;3.93;;;25.80;73.30;;;;;;5052254;28;20261;-74
2023/01/18 07:53:33;;;;;;;20.70;4.43;;;25.70;73.10;;;;;;5051359;28;20192;-73
2023/01/18 07:56:02;;;;;;;17.70;3.73;;;25.70;73.30;;;;;;5047921;28;20180;-72
2023/01/18 07:58:30;;;;;;;17.20;3.73;;;25.70;73.20;;;;;;5057236;28;20187;-70
2023/01/18 08:01:07;;;;;;;23.37;4.30;;;25.70;73.20;;;;;;5052390;28;20219;-70
2023/01/18 08:03:35;;;;;;;16.20;4.03;;;25.60;73.40;;;;;;5053026;28;20638;-71
2023/01/18 08:06:05;;;;;;;14.37;3.67;;;25.50;73.60;;;;;;5052915;28;20581;-70
2023/01/18 08:08:34;;;;;;;14.10;3.43;;;25.50;73.30;;;;;;5051932;28;20270;-71
2023/01/18 08:11:04;;;;;;;23.93;4.27;;;25.50;73.40;;;;;;5053653;28;20213;-69
2023/01/18 08:13:31;;;;;;;19.73;4.07;;;25.50;73.60;;;;;;5051600;28;20599;-70
2023/01/18 08:16:04;;;;;;;23.50;4.37;;;25.50;73.70;;;;;;5052943;28;20646;-72
2023/01/18 08:18:31;;;;;;;22.43;4.43;;;25.50;73.80;;;;;;5052477;28;20168;-74
2023/01/18 08:20:59;;;;;;;22.20;4.53;;;25.50;74.10;;;;;;5053352;28;20857;-70
2023/01/18 08:23:26;;;;;;;21.87;3.83;;;25.40;74.00;;;;;;5052963;28;20211;-73
2023/01/18 08:25:54;;;;;;;14.70;4.53;;;25.50;73.90;;;;;;5052664;28;20187;-70
2023/01/18 08:28:22;;;;;;;18.57;3.97;;;25.50;74.20;;;;;;5053000;28;20171;-67
2023/01/18 08:30:49;;;;;;;21.87;4.57;;;25.50;74.20;;;;;;5050947;28;20171;-70
2023/01/18 08:33:17;;;;;;;20.77;4.00;;;25.40;74.40;;;;;;5050504;28;20218;-70
2023/01/18 08:35:47;;;;;;;19.67;4.37;;;25.40;74.50;;;;;;5052059;28;20184;-72
2023/01/18 08:38:15;;;;;;;17.57;4.00;;;25.40;74.80;;;;;;5051415;28;20187;-71
2023/01/18 08:40:43;;;;;;;15.07;3.90;;;25.40;74.50;;;;;;5052843;28;20580;-71
2023/01/18 08:43:11;;;;;;;21.67;4.50;;;25.40;74.60;;;;;;5058412;28;20189;-71
2023/01/18 08:45:38;;;;;;;22.23;4.40;;;25.30;74.80;;;;;;5051557;28;20199;-71
2023/01/18 08:48:08;;;;;;;15.83;3.67;;;25.30;75.10;;;;;;5050601;28;20183;-72
2023/01/18 08:50:38;;;;;;;18.70;4.13;;;25.30;75.10;;;;;;5052595;28;20223;-73
2023/01/18 08:53:05;;;;;;;15.47;3.70;;;25.30;75.10;;;;;;5052213;28;20179;-72
2023/01/18 08:55:35;;;;;;;17.33;3.50;;;25.30;75.10;;;;;;5052461;28;20547;-70
2023/01/18 08:58:02;;;;;;;27.60;4.77;;;25.30;75.00;;;;;;5052501;28;20179;-72
2023/01/18 09:00:30;;;;;;;15.63;3.63;;;25.30;75.20;;;;;;5056182;28;20323;-70
2023/01/18 09:02:58;;;;;;;18.40;3.67;;;25.20;75.00;;;;;;5050437;28;20692;-72
2023/01/18 09:05:25;;;;;;;19.70;4.43;;;25.30;75.00;;;;;;5055446;28;20194;-71
2023/01/18 09:07:54;;;;;;;15.70;3.73;;;25.30;75.00;;;;;;5070647;28;20178;-74
2023/01/18 09:10:22;;;;;;;17.70;3.60;;;25.30;74.90;;;;;;5055478;28;20241;-68
2023/01/18 09:12:49;;;;;;;24.07;4.20;;;25.30;74.80;;;;;;5072177;28;20511;-74
2023/01/18 09:15:17;;;;;;;19.03;4.67;;;25.30;74.70;;;;;;5072420;28;20195;-75
2023/01/18 09:17:45;;;;;;;24.97;4.80;;;25.30;74.80;;;;;;5060682;28;20176;-73
2023/01/18 09:20:13;;;;;;;21.20;3.70;;;25.30;74.80;;;;;;5066535;28;20581;-71
2023/01/18 09:22:41;;;;;;;17.13;3.50;;;25.30;74.50;;;;;;5054212;28;20182;-68
2023/01/18 09:25:10;;;;;;;19.90;3.83;;;25.30;74.50;;;;;;5060694;28;20171;-68
2023/01/18 09:27:37;;;;;;;14.53;3.40;;;25.40;74.40;;;;;;5072718;28;20175;-67
2023/01/18 09:30:06;;;;;;;15.50;4.00;;;25.50;74.20;;;;;;5064329;28;20594;-67
2023/01/18 09:32:33;;;;;;;17.60;4.10;;;25.60;73.70;;;;;;5071865;28;20186;-69
2023/01/18 09:35:00;;;;;;;15.63;4.17;;;25.70;73.30;;;;;;5064672;28;20183;-67
2023/01/18 09:37:28;;;;;;;19.27;4.17;;;25.70;72.90;;;;;;5060967;28;20183;-67
2023/01/18 09:39:55;;;;;;;16.90;3.77;;;25.80;72.50;;;;;;5051336;28;20697;-69
2023/01/18 09:42:29;;;;;;;25.53;5.00;;;25.80;73.00;;;;;;5053552;28;20175;-70
2023/01/18 09:45:00;;;;;;;20.50;4.37;;;25.60;76.70;;;;;;5059452;28;20187;-70
2023/01/18 09:47:33;;;;;;;26.80;4.80;;;25.10;79.90;;;;;;5054546;28;20199;-70
2023/01/18 09:50:16;;;;;;;24.93;4.90;;;24.80;81.90;;;;;;5055269;28;20210;-70
2023/01/18 09:53:20;;;;;;;18.03;4.60;;;24.50;82.40;;;;;;5054179;28;20196;-70
2023/01/18 09:56:11;;;;;;;21.50;4.77;;;24.30;83.90;;;;;;5045840;28;20184;-67
2023/01/18 09:58:38;;;;;;;22.97;5.97;;;24.30;84.70;;;;;;5065607;28;20688;-70
2023/01/18 10:01:12;;;;;;;27.43;5.90;;;24.00;85.30;;;;;;5058068;28;21111;-73
2023/01/18 10:03:48;;;;;;;23.23;5.90;;;23.80;86.60;;;;;;5054650;28;20779;-71
2023/01/18 10:06:27;;;;;;;22.77;5.27;;;23.70;87.90;;;;;;5058841;28;20176;-71
2023/01/18 10:09:00;;;;;;;21.80;5.53;;;23.60;88.60;;;;;;5067297;28;20206;-71
2023/01/18 10:11:43;;;;;;;20.30;5.73;;;23.50;89.10;;;;;;5054367;28;20187;-72
2023/01/18 10:14:34;;;;;;;26.50;6.20;;;23.30;89.70;;;;;;5054181;28;20259;-73
2023/01/18 10:17:08;;;;;;;27.63;6.83;;;23.20;90.40;;;;;;5044071;28;20714;-72
2023/01/18 10:19:35;;;;;;;23.33;6.23;;;23.00;90.70;;;;;;5054362;28;20272;-71
2023/01/18 10:22:29;;;;;;;21.20;5.70;;;23.00;91.00;;;;;;5055033;28;20175;-70
2023/01/18 10:25:02;;;;;;;19.37;6.07;;;23.00;91.30;;;;;;5060218;28;20180;-71
2023/01/18 10:27:37;;;;;;;23.23;6.27;;;22.90;91.40;;;;;;5066721;28;20175;-72
2023/01/18 10:30:19;;;;;;;20.77;6.33;;;22.90;91.60;;;;;;5052734;28;20258;-72
2023/01/18 10:33:01;;;;;;;20.07;6.13;;;22.90;91.70;;;;;;5054642;28;20639;-72
2023/01/18 10:35:30;;;;;;;18.53;6.07;;;22.80;91.80;;;;;;5056507;28;20334;-73
2023/01/18 10:38:05;;;;;;;20.13;6.67;;;22.80;91.90;;;;;;5068439;28;20662;-72
2023/01/18 10:40:35;;;;;;;20.33;6.23;;;22.80;92.10;;;;;;5071815;28;20677;-71
2023/01/18 10:43:03;;;;;;;17.03;6.47;;;22.70;92.10;;;;;;5058170;28;20209;-71
2023/01/18 10:45:32;;;;;;;15.83;5.37;;;22.80;92.30;;;;;;5073839;28;20693;-70
2023/01/18 10:48:12;;;;;;;18.43;5.90;;;22.70;92.20;;;;;;5062699;28;20180;-71
2023/01/18 10:50:44;;;;;;;15.80;6.20;;;22.60;92.30;;;;;;5064133;28;20221;-71
2023/01/18 10:53:23;;;;;;;14.60;5.70;;;22.50;92.40;;;;;;5065285;28;20195;-72
2023/01/18 10:56:09;;;;;;;11.83;5.73;;;22.30;92.50;;;;;;5055640;28;20194;-72
2023/01/18 10:58:47;;;;;;;13.00;5.97;;;22.30;92.50;;;;;;5052649;28;20179;-72
2023/01/18 11:01:34;;;;;;;11.00;6.23;;;22.30;92.60;;;;;;5054372;28;20222;-73
2023/01/18 11:04:24;;;;;;;12.53;6.70;;;22.30;92.60;;;;;;5074462;28;20634;-69
2023/01/18 11:07:00;;;;;;;14.37;7.97;;;22.40;92.90;;;;;;5058726;28;20184;-74
2023/01/18 11:09:48;;;;;;;12.27;8.00;;;22.30;92.90;;;;;;5052964;28;20175;-72
2023/01/18 11:12:33;;;;;;;16.10;8.47;;;22.30;92.90;;;;;;5042591;28;20581;-72
2023/01/18 11:15:25;;;;;;;11.47;8.33;;;22.30;93.10;;;;;;5062299;28;20226;-72
2023/01/18 11:17:59;;;;;;;13.03;8.47;;;22.20;92.90;;;;;;5050051;28;20188;-72
2023/01/18 11:20:48;;;;;;;10.07;8.70;;;22.20;93.00;;;;;;5051238;28;20214;-72
2023/01/18 11:23:20;;;;;;;15.63;9.53;;;22.20;93.00;;;;;;5054360;28;20176;-72
2023/01/18 11:26:00;;;;;;;16.03;10.90;;;22.30;93.10;;;;;;5057002;28;20176;-71
2023/01/18 11:28:59;;;;;;;17.73;11.20;;;22.30;93.10;;;;;;5052447;28;20178;-71
2023/01/18 11:31:44;;;;;;;15.47;11.33;;;22.30;93.10;;;;;;5054169;28;20225;-71
2023/01/18 11:34:21;;;;;;;15.60;11.43;;;22.30;93.00;;;;;;5053912;28;20183;-70
2023/01/18 11:36:48;;;;;;;14.13;12.23;;;22.20;93.00;;;;;;5054978;28;20179;-72
2023/01/18 11:39:19;;;;;;;16.80;13.30;;;22.30;93.10;;;;;;5053632;28;20206;-71
2023/01/18 11:41:47;;;;;;;16.37;13.20;;;22.30;93.10;;;;;;5054582;28;20708;-70
2023/01/18 11:44:29;;;;;;;13.67;12.27;;;22.30;93.20;;;;;;5045330;28;20233;-70
2023/01/18 11:47:02;;;;;;;17.90;13.20;;;22.20;93.10;;;;;;5053141;28;20203;-72
2023/01/18 11:49:53;;;;;;;20.13;14.37;;;22.20;93.10;;;;;;5054597;28;20198;-71
2023/01/18 11:52:42;;;;;;;14.60;13.07;;;22.00;93.10;;;;;;5041925;28;20238;-71
2023/01/18 11:55:37;;;;;;;17.10;15.37;;;22.00;93.20;;;;;;5052835;28;20516;-72
2023/01/18 11:58:16;;;;;;;16.87;15.50;;;21.90;93.20;;;;;;5050732;28;20183;-72
2023/01/18 12:01:11;;;;;;;17.33;15.63;;;21.90;93.20;;;;;;5050402;28;20234;-73
2023/01/18 12:04:01;;;;;;;16.60;14.97;;;21.90;93.30;;;;;;5024876;28;20187;-72
2023/01/18 12:06:57;;;;;;;14.50;13.30;;;21.90;93.30;;;;;;5054679;28;20654;-72
2023/01/18 12:09:45;;;;;;;17.70;16.10;;;21.90;93.20;;;;;;5053732;28;20529;-72
2023/01/18 12:12:30;;;;;;;17.47;15.80;;;21.90;93.30;;;;;;5053903;28;20188;-71
2023/01/18 12:15:25;;;;;;;17.20;15.87;;;22.00;93.30;;;;;;5053931;28;20186;-71
2023/01/18 12:18:00;;;;;;;17.63;16.00;;;22.10;93.30;;;;;;5053461;28;20176;-72
2023/01/18 12:21:01;;;;;;;17.50;16.00;;;22.10;93.30;;;;;;5049568;28;20692;-72
2023/01/18 12:23:56;;;;;;;17.10;15.70;;;22.10;93.30;;;;;;5054474;28;20171;-71
2023/01/18 12:26:35;;;;;;;19.43;17.43;;;22.20;93.20;;;;;;5041170;28;20168;-71
2023/01/18 12:29:26;;;;;;;17.40;15.73;;;22.20;93.10;;;;;;5052374;28;20522;-72
2023/01/18 12:32:06;;;;;;;16.77;15.37;;;22.10;93.10;;;;;;5053489;28;20179;-71
2023/01/18 12:34:51;;;;;;;17.37;15.50;;;22.00;93.00;;;;;;5053656;28;20225;-71
2023/01/18 12:38:10;;;;;;;15.57;14.20;;;22.00;93.00;;;;;;5051918;28;20229;-71
2023/01/18 12:41:10;;;;;;;15.80;14.40;;;22.00;93.00;;;;;;5050100;28;20211;-72
2023/01/18 12:43:58;;;;;;;15.57;14.20;;;22.10;93.10;;;;;;5053561;28;20527;-72
2023/01/18 12:46:51;;;;;;;15.47;14.10;;;22.10;93.10;;;;;;5052949;28;20180;-72
2023/01/18 12:49:21;;;;;;;16.47;14.57;;;22.10;93.00;;;;;;5040728;28;20184;-72
2023/01/18 12:51:57;;;;;;;17.43;15.97;;;22.10;93.00;;;;;;5053034;28;20231;-72
2023/01/18 12:54:31;;;;;;;18.77;16.83;;;22.00;93.00;;;;;;5063731;28;20262;-72
2023/01/18 12:56:59;;;;;;;18.67;16.80;;;22.00;93.00;;;;;;5063354;28;20183;-70
2023/01/18 12:59:40;;;;;;;19.00;17.10;;;22.00;93.10;;;;;;5067326;28;20175;-70
2023/01/18 13:02:26;;;;;;;18.37;16.60;;;22.00;93.00;;;;;;5050960;28;20792;-72
2023/01/18 13:05:16;;;;;;;17.93;16.17;;;22.00;93.00;;;;;;5061327;28;20277;-71
2023/01/18 13:07:49;;;;;;;18.13;16.60;;;22.00;93.00;;;;;;5072893;28;20175;-70
2023/01/18 13:10:28;;;;;;;16.67;15.37;;;22.10;93.10;;;;;;5059256;28;20180;-69
2023/01/18 13:12:56;;;;;;;19.37;17.70;;;22.10;93.10;;;;;;5057457;28;20233;-71
2023/01/18 13:15:24;;;;;;;20.37;18.50;;;22.10;93.10;;;;;;5057519;28;20206;-71
2023/01/18 13:18:05;;;;;;;20.37;18.57;;;22.10;93.10;;;;;;5058174;28;20179;-71
2023/01/18 13:21:00;;;;;;;21.93;19.87;;;22.20;93.20;;;;;;5072710;28;20289;-72
2023/01/18 13:23:32;;;;;;;21.93;19.77;;;22.20;93.10;;;;;;5044093;28;20176;-72
2023/01/18 13:26:06;;;;;;;21.47;19.43;;;22.10;93.10;;;;;;5052120;28;20542;-71
2023/01/18 13:28:33;;;;;;;20.80;18.97;;;22.10;93.20;;;;;;5052432;28;20168;-71
2023/01/18 13:31:04;;;;;;;23.07;20.77;;;22.20;93.20;;;;;;5051694;28;20184;-72
2023/01/18 13:33:42;;;;;;;23.57;21.13;;;22.20;93.20;;;;;;5053289;28;20210;-71
2023/01/18 13:36:16;;;;;;;23.97;21.93;;;22.20;93.20;;;;;;5052591;28;20180;-71
2023/01/18 13:38:59;;;;;;;22.97;20.67;;;22.20;93.10;;;;;;5052739;28;20642;-71
2023/01/18 13:41:30;;;;;;;21.77;19.97;;;22.20;93.10;;;;;;5052361;28;20211;-71